sensor_id;sensor_type;location;lat;lon;timestamp;pressure;altitude;pressure_sealevel;temperature;humidity
62374;BME280;48409;49.030;1.820;2022-08-20T00:00:56;101100.16;;;21.02;49.86
62374;BME280;48409;49.030;1.820;2022-08-20T00:03:25;101101.25;;;20.99;49.89
62374;BME280;48409;49.030;1.820;2022-08-20T00:05:57;101100.69;;;20.95;49.87
62374;BME280;48409;49.030;1.820;2022-08-20T00:08:23;101110.66;;;20.93;49.86
62374;BME280;48409;49.030;1.820;2022-08-20T00:10:52;101103.84;;;20.89;49.72
62374;BME280;48409;49.030;1.820;2022-08-20T00:13:24;101112.97;;;20.86;49.81
62374;BME280;48409;49.030;1.820;2022-08-20T00:15:51;101102.53;;;20.83;49.81
62374;BME280;48409;49.030;1.820;2022-08-20T00:18:18;101104.47;;;20.81;49.77
62374;BME280;48409;49.030;1.820;2022-08-20T00:20:46;101097.66;;;20.77;49.89
62374;BME280;48409;49.030;1.820;2022-08-20T00:23:12;101094.28;;;20.75;49.77
62374;BME280;48409;49.030;1.820;2022-08-20T00:25:39;101099.03;;;20.71;49.62
62374;BME280;48409;49.030;1.820;2022-08-20T00:28:05;101101.13;;;20.68;49.83
62374;BME280;48409;49.030;1.820;2022-08-20T00:30:32;101104.91;;;20.65;49.71
62374;BME280;48409;49.030;1.820;2022-08-20T00:33:22;101095.31;;;20.63;49.58
62374;BME280;48409;49.030;1.820;2022-08-20T00:35:50;101094.72;;;20.59;49.59
62374;BME280;48409;49.030;1.820;2022-08-20T00:38:16;101090.44;;;20.56;49.90
62374;BME280;48409;49.030;1.820;2022-08-20T00:40:52;101094.22;;;20.54;49.55
62374;BME280;48409;49.030;1.820;2022-08-20T00:43:34;101100.78;;;20.50;49.56
62374;BME280;48409;49.030;1.820;2022-08-20T00:46:05;101101.91;;;20.47;49.66
62374;BME280;48409;49.030;1.820;2022-08-20T00:48:34;101096.81;;;20.44;49.53
62374;BME280;48409;49.030;1.820;2022-08-20T00:51:26;101096.31;;;20.39;49.63
62374;BME280;48409;49.030;1.820;2022-08-20T00:54:02;101100.09;;;20.36;49.42
62374;BME280;48409;49.030;1.820;2022-08-20T00:56:30;101095.84;;;20.33;49.70
62374;BME280;48409;49.030;1.820;2022-08-20T00:58:58;101096.97;;;20.31;49.48
62374;BME280;48409;49.030;1.820;2022-08-20T01:01:24;101091.03;;;20.27;49.54
62374;BME280;48409;49.030;1.820;2022-08-20T01:03:49;101088.59;;;20.24;49.51
62374;BME280;48409;49.030;1.820;2022-08-20T01:06:19;101098.56;;;20.22;49.43
62374;BME280;48409;49.030;1.820;2022-08-20T01:08:45;101095.16;;;20.20;49.41
62374;BME280;48409;49.030;1.820;2022-08-20T01:11:10;101096.25;;;20.17;49.58
62374;BME280;48409;49.030;1.820;2022-08-20T01:13:42;101091.16;;;20.14;49.61
62374;BME280;48409;49.030;1.820;2022-08-20T01:16:15;101087.75;;;20.12;49.47
62374;BME280;48409;49.030;1.820;2022-08-20T01:18:43;101094.22;;;20.09;49.38
62374;BME280;48409;49.030;1.820;2022-08-20T01:21:10;101094.44;;;20.06;49.61
62374;BME280;48409;49.030;1.820;2022-08-20T01:24:00;101087.66;;;20.02;49.45
62374;BME280;48409;49.030;1.820;2022-08-20T01:26:31;101096.66;;;20.01;49.27
62374;BME280;48409;49.030;1.820;2022-08-20T01:29:09;101082.78;;;19.96;49.38
62374;BME280;48409;49.030;1.820;2022-08-20T01:31:39;101092.00;;;19.92;49.44
62374;BME280;48409;49.030;1.820;2022-08-20T01:34:07;101095.91;;;19.88;49.38
62374;BME280;48409;49.030;1.820;2022-08-20T01:36:39;101100.53;;;19.86;49.56
62374;BME280;48409;49.030;1.820;2022-08-20T01:39:08;101102.56;;;19.82;49.53
62374;BME280;48409;49.030;1.820;2022-08-20T01:44:15;101109.00;;;19.79;49.51
62374;BME280;48409;49.030;1.820;2022-08-20T01:46:43;101106.56;;;19.76;49.64
62374;BME280;48409;49.030;1.820;2022-08-20T01:49:12;101105.00;;;19.74;49.55
62374;BME280;48409;49.030;1.820;2022-08-20T01:51:38;101099.75;;;19.72;49.58
62374;BME280;48409;49.030;1.820;2022-08-20T01:54:04;101109.75;;;19.70;49.63
62374;BME280;48409;49.030;1.820;2022-08-20T01:56:31;101106.34;;;19.68;49.49
62374;BME280;48409;49.030;1.820;2022-08-20T01:58:58;101106.47;;;19.66;49.48
62374;BME280;48409;49.030;1.820;2022-08-20T02:01:38;101110.22;;;19.64;49.50
62374;BME280;48409;49.030;1.820;2022-08-20T02:04:08;101111.19;;;19.63;49.40
62374;BME280;48409;49.030;1.820;2022-08-20T02:06:40;101114.13;;;19.60;49.61
62374;BME280;48409;49.030;1.820;2022-08-20T02:09:07;101109.00;;;19.56;49.48
62374;BME280;48409;49.030;1.820;2022-08-20T02:11:33;101114.34;;;19.56;49.50
62374;BME280;48409;49.030;1.820;2022-08-20T02:14:01;101110.97;;;19.54;49.59
62374;BME280;48409;49.030;1.820;2022-08-20T02:16:30;101115.56;;;19.52;49.60
62374;BME280;48409;49.030;1.820;2022-08-20T02:19:00;101116.53;;;19.51;49.37
62374;BME280;48409;49.030;1.820;2022-08-20T02:21:29;101106.94;;;19.49;49.56
62374;BME280;48409;49.030;1.820;2022-08-20T02:23:57;101127.44;;;19.48;49.58
62374;BME280;48409;49.030;1.820;2022-08-20T02:26:24;101116.97;;;19.45;49.56
62374;BME280;48409;49.030;1.820;2022-08-20T02:28:51;101119.81;;;19.43;49.65
62374;BME280;48409;49.030;1.820;2022-08-20T02:31:19;101120.84;;;19.41;49.68
62374;BME280;48409;49.030;1.820;2022-08-20T02:33:45;101115.78;;;19.38;49.45
62374;BME280;48409;49.030;1.820;2022-08-20T02:36:13;101119.41;;;19.37;49.46
62374;BME280;48409;49.030;1.820;2022-08-20T02:38:40;101118.69;;;19.35;49.57
62374;BME280;48409;49.030;1.820;2022-08-20T02:41:06;101121.34;;;19.35;49.54
62374;BME280;48409;49.030;1.820;2022-08-20T02:43:32;101123.28;;;19.33;49.57
62374;BME280;48409;49.030;1.820;2022-08-20T02:45:58;101116.22;;;19.31;49.56
62374;BME280;48409;49.030;1.820;2022-08-20T02:48:24;101118.19;;;19.29;49.54
62374;BME280;48409;49.030;1.820;2022-08-20T02:50:58;101120.97;;;19.28;49.35
62374;BME280;48409;49.030;1.820;2022-08-20T02:53:27;101121.19;;;19.25;49.52
62374;BME280;48409;49.030;1.820;2022-08-20T02:55:53;101120.34;;;19.24;49.50
62374;BME280;48409;49.030;1.820;2022-08-20T02:58:19;101122.28;;;19.22;49.38
62374;BME280;48409;49.030;1.820;2022-08-20T03:00:45;101125.91;;;19.21;49.71
62374;BME280;48409;49.030;1.820;2022-08-20T03:03:11;101125.19;;;19.19;49.38
62374;BME280;48409;49.030;1.820;2022-08-20T03:05:40;101130.66;;;19.17;49.66
62374;BME280;48409;49.030;1.820;2022-08-20T03:08:07;101126.41;;;19.15;49.63
62374;BME280;48409;49.030;1.820;2022-08-20T03:10:35;101123.84;;;19.13;49.71
62374;BME280;48409;49.030;1.820;2022-08-20T03:13:02;101122.16;;;19.12;49.72
62374;BME280;48409;49.030;1.820;2022-08-20T03:15:28;101130.28;;;19.11;49.52
62374;BME280;48409;49.030;1.820;2022-08-20T03:17:54;101122.38;;;19.09;49.50
62374;BME280;48409;49.030;1.820;2022-08-20T03:20:20;101115.44;;;19.07;49.67
62374;BME280;48409;49.030;1.820;2022-08-20T03:22:46;101120.91;;;19.05;49.60
62374;BME280;48409;49.030;1.820;2022-08-20T03:25:15;101118.31;;;19.03;49.42
62374;BME280;48409;49.030;1.820;2022-08-20T03:27:41;101118.41;;;19.02;49.42
62374;BME280;48409;49.030;1.820;2022-08-20T03:30:11;101113.19;;;19.00;49.68
62374;BME280;48409;49.030;1.820;2022-08-20T03:32:37;101115.97;;;18.99;49.63
62374;BME280;48409;49.030;1.820;2022-08-20T03:35:05;101117.94;;;18.97;49.64
62374;BME280;48409;49.030;1.820;2022-08-20T03:37:33;101120.69;;;18.95;49.54
62374;BME280;48409;49.030;1.820;2022-08-20T03:39:59;101119.00;;;18.94;49.48
62374;BME280;48409;49.030;1.820;2022-08-20T03:42:25;101123.59;;;18.92;49.68
62374;BME280;48409;49.030;1.820;2022-08-20T03:44:52;101123.59;;;18.92;49.57
62374;BME280;48409;49.030;1.820;2022-08-20T03:47:18;101122.00;;;18.89;49.55
62374;BME280;48409;49.030;1.820;2022-08-20T03:49:44;101127.34;;;18.89;49.78
62374;BME280;48409;49.030;1.820;2022-08-20T03:52:10;101130.97;;;18.88;49.64
62374;BME280;48409;49.030;1.820;2022-08-20T03:54:35;101139.09;;;18.87;49.63
62374;BME280;48409;49.030;1.820;2022-08-20T03:57:01;101132.06;;;18.86;49.51
62374;BME280;48409;49.030;1.820;2022-08-20T03:59:27;101140.19;;;18.84;49.63
62374;BME280;48409;49.030;1.820;2022-08-20T04:01:53;101134.03;;;18.84;49.73
62374;BME280;48409;49.030;1.820;2022-08-20T04:04:19;101131.47;;;18.82;49.75
62374;BME280;48409;49.030;1.820;2022-08-20T04:06:44;101127.19;;;18.79;49.61
62374;BME280;48409;49.030;1.820;2022-08-20T04:09:12;101130.81;;;18.78;49.80
62374;BME280;48409;49.030;1.820;2022-08-20T04:11:39;101129.13;;;18.77;49.82
62374;BME280;48409;49.030;1.820;2022-08-20T04:14:04;101132.75;;;18.76;49.62
62374;BME280;48409;49.030;1.820;2022-08-20T04:16:29;101129.34;;;18.74;49.81
62374;BME280;48409;49.030;1.820;2022-08-20T04:18:57;101132.88;;;18.75;49.35
62374;BME280;48409;49.030;1.820;2022-08-20T04:21:22;101126.91;;;18.71;49.81
62374;BME280;48409;49.030;1.820;2022-08-20T04:23:47;101125.22;;;18.70;49.68
62374;BME280;48409;49.030;1.820;2022-08-20T04:26:13;101127.88;;;18.70;49.91
62374;BME280;48409;49.030;1.820;2022-08-20T04:28:38;101128.09;;;18.67;49.78
62374;BME280;48409;49.030;1.820;2022-08-20T04:31:04;101128.09;;;18.67;49.83
62374;BME280;48409;49.030;1.820;2022-08-20T04:33:29;101136.22;;;18.65;49.63
62374;BME280;48409;49.030;1.820;2022-08-20T04:35:57;101131.00;;;18.64;49.76
62374;BME280;48409;49.030;1.820;2022-08-20T04:38:27;101131.97;;;18.63;49.57
62374;BME280;48409;49.030;1.820;2022-08-20T04:40:52;101139.22;;;18.61;49.69
62374;BME280;48409;49.030;1.820;2022-08-20T04:43:19;101128.69;;;18.59;49.79
62374;BME280;48409;49.030;1.820;2022-08-20T04:45:45;101128.91;;;18.56;49.71
62374;BME280;48409;49.030;1.820;2022-08-20T04:48:11;101126.44;;;18.53;49.71
62374;BME280;48409;49.030;1.820;2022-08-20T04:50:38;101122.19;;;18.50;49.66
62374;BME280;48409;49.030;1.820;2022-08-20T04:53:07;101122.19;;;18.50;49.54
62374;BME280;48409;49.030;1.820;2022-08-20T04:55:34;101120.50;;;18.49;49.55
62374;BME280;48409;49.030;1.820;2022-08-20T04:58:08;101124.13;;;18.48;49.54
62374;BME280;48409;49.030;1.820;2022-08-20T05:00:34;101133.06;;;18.47;49.54
62374;BME280;48409;49.030;1.820;2022-08-20T05:02:59;101140.34;;;18.45;49.81
62374;BME280;48409;49.030;1.820;2022-08-20T05:05:25;101135.00;;;18.45;49.80
62374;BME280;48409;49.030;1.820;2022-08-20T05:07:51;101139.47;;;18.45;49.72
62374;BME280;48409;49.030;1.820;2022-08-20T05:10:18;101143.97;;;18.44;49.77
62374;BME280;48409;49.030;1.820;2022-08-20T05:12:45;101151.22;;;18.42;49.80
62374;BME280;48409;49.030;1.820;2022-08-20T05:15:11;101149.53;;;18.41;49.72
62374;BME280;48409;49.030;1.820;2022-08-20T05:17:38;101154.00;;;18.40;49.68
62374;BME280;48409;49.030;1.820;2022-08-20T05:20:07;101152.31;;;18.39;49.84
62374;BME280;48409;49.030;1.820;2022-08-20T05:22:33;101155.06;;;18.38;49.75
62374;BME280;48409;49.030;1.820;2022-08-20T05:24:58;101151.56;;;18.37;49.58
62374;BME280;48409;49.030;1.820;2022-08-20T05:27:26;101157.84;;;18.36;49.78
62374;BME280;48409;49.030;1.820;2022-08-20T05:29:53;101150.00;;;18.35;49.61
62374;BME280;48409;49.030;1.820;2022-08-20T05:32:20;101161.47;;;18.35;49.79
62374;BME280;48409;49.030;1.820;2022-08-20T05:34:45;101158.91;;;18.34;49.96
62374;BME280;48409;49.030;1.820;2022-08-20T05:37:11;101158.91;;;18.34;49.67
62374;BME280;48409;49.030;1.820;2022-08-20T05:39:36;101159.88;;;18.33;49.68
62374;BME280;48409;49.030;1.820;2022-08-20T05:42:01;101160.88;;;18.32;49.80
62374;BME280;48409;49.030;1.820;2022-08-20T05:44:27;101165.34;;;18.31;49.89
62374;BME280;48409;49.030;1.820;2022-08-20T05:46:52;101160.97;;;18.30;49.80
62374;BME280;48409;49.030;1.820;2022-08-20T05:49:20;101160.09;;;18.30;49.78
62374;BME280;48409;49.030;1.820;2022-08-20T05:51:46;101158.41;;;18.29;49.85
62374;BME280;48409;49.030;1.820;2022-08-20T05:54:12;101162.78;;;18.30;49.77
62374;BME280;48409;49.030;1.820;2022-08-20T05:56:38;101164.72;;;18.27;50.06
62374;BME280;48409;49.030;1.820;2022-08-20T05:59:05;101162.78;;;18.30;50.09
62374;BME280;48409;49.030;1.820;2022-08-20T06:01:32;101163.75;;;18.29;50.10
62374;BME280;48409;49.030;1.820;2022-08-20T06:03:59;101161.06;;;18.29;49.90
62374;BME280;48409;49.030;1.820;2022-08-20T06:06:43;101162.78;;;18.30;50.22
62374;BME280;48409;49.030;1.820;2022-08-20T06:09:09;101167.28;;;18.29;50.24
62374;BME280;48409;49.030;1.820;2022-08-20T06:11:34;101171.75;;;18.29;50.12
62374;BME280;48409;49.030;1.820;2022-08-20T06:14:00;101178.78;;;18.30;50.38
62374;BME280;48409;49.030;1.820;2022-08-20T06:16:26;101180.50;;;18.31;50.36
62374;BME280;48409;49.030;1.820;2022-08-20T06:18:51;101180.50;;;18.31;50.34
62374;BME280;48409;49.030;1.820;2022-08-20T06:21:17;101183.88;;;18.33;50.44
62374;BME280;48409;49.030;1.820;2022-08-20T06:23:42;101184.75;;;18.33;50.55
62374;BME280;48409;49.030;1.820;2022-08-20T06:26:08;101187.31;;;18.35;50.49
62374;BME280;48409;49.030;1.820;2022-08-20T06:28:34;101188.03;;;18.37;50.61
62374;BME280;48409;49.030;1.820;2022-08-20T06:31:00;101189.63;;;18.39;50.68
62374;BME280;48409;49.030;1.820;2022-08-20T06:33:25;101192.19;;;18.41;50.62
62374;BME280;48409;49.030;1.820;2022-08-20T06:35:50;101184.94;;;18.43;50.75
62374;BME280;48409;49.030;1.820;2022-08-20T06:38:16;101185.69;;;18.45;51.00
62374;BME280;48409;49.030;1.820;2022-08-20T06:40:41;101186.41;;;18.47;50.91
62374;BME280;48409;49.030;1.820;2022-08-20T06:43:07;101183.63;;;18.49;51.00
62374;BME280;48409;49.030;1.820;2022-08-20T06:45:33;101177.13;;;18.53;50.95
62374;BME280;48409;49.030;1.820;2022-08-20T06:48:04;101181.38;;;18.56;51.07
62374;BME280;48409;49.030;1.820;2022-08-20T06:50:33;101182.13;;;18.58;51.08
62374;BME280;48409;49.030;1.820;2022-08-20T06:53:05;101187.22;;;18.61;51.11
62374;BME280;48409;49.030;1.820;2022-08-20T06:55:30;101193.31;;;18.63;51.27
62374;BME280;48409;49.030;1.820;2022-08-20T06:58:06;101188.72;;;18.65;51.38
62374;BME280;48409;49.030;1.820;2022-08-20T07:00:33;101188.50;;;18.68;51.40
62374;BME280;48409;49.030;1.820;2022-08-20T07:02:59;101195.53;;;18.69;51.29
62374;BME280;48409;49.030;1.820;2022-08-20T07:05:31;101195.31;;;18.72;51.25
62374;BME280;48409;49.030;1.820;2022-08-20T07:07:57;101196.78;;;18.76;51.58
62374;BME280;48409;49.030;1.820;2022-08-20T07:10:24;101196.59;;;18.79;51.51
62374;BME280;48409;49.030;1.820;2022-08-20T07:12:50;101194.63;;;18.82;51.72
62374;BME280;48409;49.030;1.820;2022-08-20T07:15:17;101203.25;;;18.85;51.69
62374;BME280;48409;49.030;1.820;2022-08-20T07:17:49;101201.25;;;18.89;51.52
62374;BME280;48409;49.030;1.820;2022-08-20T07:20:15;101206.31;;;18.92;51.94
62374;BME280;48409;49.030;1.820;2022-08-20T07:22:41;101210.47;;;18.96;51.86
62374;BME280;48409;49.030;1.820;2022-08-20T07:25:10;101200.44;;;19.00;52.19
62374;BME280;48409;49.030;1.820;2022-08-20T07:27:37;101207.16;;;19.05;52.05
62374;BME280;48409;49.030;1.820;2022-08-20T07:30:04;101214.72;;;19.12;52.29
62374;BME280;48409;49.030;1.820;2022-08-20T07:32:49;101214.03;;;19.21;52.43
62374;BME280;48409;49.030;1.820;2022-08-20T07:35:16;101220.63;;;19.28;52.92
62374;BME280;48409;49.030;1.820;2022-08-20T07:37:44;101214.59;;;19.38;52.88
62374;BME280;48409;49.030;1.820;2022-08-20T07:40:20;101219.13;;;19.49;53.13
62374;BME280;48409;49.030;1.820;2022-08-20T07:42:46;101217.56;;;19.57;53.12
62374;BME280;48409;49.030;1.820;2022-08-20T07:45:13;101215.75;;;19.69;53.36
62374;BME280;48409;49.030;1.820;2022-08-20T07:47:40;101214.00;;;19.81;53.33
62374;BME280;48409;49.030;1.820;2022-08-20T07:50:08;101212.28;;;19.92;53.50
62374;BME280;48409;49.030;1.820;2022-08-20T07:52:34;101214.28;;;20.01;53.53
62374;BME280;48409;49.030;1.820;2022-08-20T07:55:05;101221.22;;;20.15;53.43
62374;BME280;48409;49.030;1.820;2022-08-20T07:57:30;101224.75;;;20.27;53.49
62374;BME280;48409;49.030;1.820;2022-08-20T07:59:56;101230.06;;;20.39;53.40
62374;BME280;48409;49.030;1.820;2022-08-20T08:02:23;101222.91;;;20.51;53.66
62374;BME280;48409;49.030;1.820;2022-08-20T08:04:49;101219.38;;;20.61;53.70
62374;BME280;48409;49.030;1.820;2022-08-20T08:07:14;101225.44;;;20.75;53.63
62374;BME280;48409;49.030;1.820;2022-08-20T08:09:41;101220.03;;;20.86;53.83
62374;BME280;48409;49.030;1.820;2022-08-20T08:12:09;101220.75;;;21.00;53.79
62374;BME280;48409;49.030;1.820;2022-08-20T08:14:36;101225.13;;;21.12;54.04
62374;BME280;48409;49.030;1.820;2022-08-20T08:17:04;101222.41;;;21.24;53.80
62374;BME280;48409;49.030;1.820;2022-08-20T08:19:34;101220.53;;;21.36;53.90
62374;BME280;48409;49.030;1.820;2022-08-20T08:22:02;101224.72;;;21.50;53.81
62374;BME280;48409;49.030;1.820;2022-08-20T08:24:28;101228.31;;;21.60;53.68
62374;BME280;48409;49.030;1.820;2022-08-20T08:26:54;101228.13;;;21.73;53.93
62374;BME280;48409;49.030;1.820;2022-08-20T08:29:19;101227.09;;;21.86;54.01
62374;BME280;48409;49.030;1.820;2022-08-20T08:31:44;101232.25;;;21.99;53.97
62374;BME280;48409;49.030;1.820;2022-08-20T08:34:10;101234.72;;;22.12;53.71
62374;BME280;48409;49.030;1.820;2022-08-20T08:36:36;101228.16;;;22.26;53.93
62374;BME280;48409;49.030;1.820;2022-08-20T08:39:04;101225.34;;;22.37;53.83
62374;BME280;48409;49.030;1.820;2022-08-20T08:41:35;101224.00;;;22.53;53.89
62374;BME280;48409;49.030;1.820;2022-08-20T08:44:09;101228.31;;;22.65;53.92
62374;BME280;48409;49.030;1.820;2022-08-20T08:46:42;101221.56;;;22.81;53.82
62374;BME280;48409;49.030;1.820;2022-08-20T08:49:20;101223.81;;;22.95;53.75
62374;BME280;48409;49.030;1.820;2022-08-20T08:52:01;101210.97;;;23.09;53.75
62374;BME280;48409;49.030;1.820;2022-08-20T08:54:30;101219.59;;;23.23;53.73
62374;BME280;48409;49.030;1.820;2022-08-20T08:56:58;101213.97;;;23.36;53.84
62374;BME280;48409;49.030;1.820;2022-08-20T08:59:28;101217.22;;;23.49;53.67
62374;BME280;48409;49.030;1.820;2022-08-20T09:01:57;101215.94;;;23.63;53.51
62374;BME280;48409;49.030;1.820;2022-08-20T09:04:41;101224.22;;;23.80;53.43
62374;BME280;48409;49.030;1.820;2022-08-20T09:07:09;101224.06;;;23.91;53.38
62374;BME280;48409;49.030;1.820;2022-08-20T09:09:38;101224.44;;;24.06;53.26
62374;BME280;48409;49.030;1.820;2022-08-20T09:12:14;101228.56;;;24.20;53.38
62374;BME280;48409;49.030;1.820;2022-08-20T09:14:43;101229.88;;;24.34;52.95
62374;BME280;48409;49.030;1.820;2022-08-20T09:17:10;101218.78;;;24.47;52.89
62374;BME280;48409;49.030;1.820;2022-08-20T09:19:35;101220.44;;;24.58;53.02
62374;BME280;48409;49.030;1.820;2022-08-20T09:22:13;101217.22;;;24.73;52.78
62374;BME280;48409;49.030;1.820;2022-08-20T09:24:40;101219.41;;;24.87;52.77
62374;BME280;48409;49.030;1.820;2022-08-20T09:27:05;101217.03;;;25.02;52.71
62374;BME280;48409;49.030;1.820;2022-08-20T09:29:31;101213.78;;;25.17;52.46
62374;BME280;48409;49.030;1.820;2022-08-20T09:32:10;101224.03;;;25.32;52.38
62374;BME280;48409;49.030;1.820;2022-08-20T09:34:46;101221.78;;;25.45;52.08
62374;BME280;48409;49.030;1.820;2022-08-20T09:37:13;101217.13;;;25.55;51.74
62374;BME280;48409;49.030;1.820;2022-08-20T09:39:39;101221.63;;;25.65;51.42
62374;BME280;48409;49.030;1.820;2022-08-20T09:42:14;101224.69;;;25.70;51.46
62374;BME280;48409;49.030;1.820;2022-08-20T09:44:41;101221.38;;;25.76;51.13
62374;BME280;48409;49.030;1.820;2022-08-20T09:47:06;101221.72;;;25.81;50.72
62374;BME280;48409;49.030;1.820;2022-08-20T09:49:32;101219.41;;;25.87;50.75
62374;BME280;48409;49.030;1.820;2022-08-20T09:51:59;101217.91;;;25.92;50.66
62374;BME280;48409;49.030;1.820;2022-08-20T09:54:26;101222.50;;;26.00;50.45
62374;BME280;48409;49.030;1.820;2022-08-20T09:56:57;101205.84;;;26.05;50.49
62374;BME280;48409;49.030;1.820;2022-08-20T09:59:22;101201.63;;;26.11;49.83
62374;BME280;48409;49.030;1.820;2022-08-20T10:01:48;101212.81;;;26.16;50.00
62374;BME280;48409;49.030;1.820;2022-08-20T10:04:14;101207.78;;;26.21;50.02
62374;BME280;48409;49.030;1.820;2022-08-20T10:06:40;101208.16;;;26.26;49.79
62374;BME280;48409;49.030;1.820;2022-08-20T10:09:06;101207.84;;;26.29;49.51
62374;BME280;48409;49.030;1.820;2022-08-20T10:11:31;101208.34;;;26.33;49.35
62374;BME280;48409;49.030;1.820;2022-08-20T10:13:57;101210.38;;;26.39;49.52
62374;BME280;48409;49.030;1.820;2022-08-20T10:16:22;101204.19;;;26.47;49.45
62374;BME280;48409;49.030;1.820;2022-08-20T10:18:48;101204.88;;;26.57;49.37
62374;BME280;48409;49.030;1.820;2022-08-20T10:21:14;101193.94;;;26.67;49.39
62374;BME280;48409;49.030;1.820;2022-08-20T10:23:40;101197.19;;;26.79;48.99
62374;BME280;48409;49.030;1.820;2022-08-20T10:26:09;101194.13;;;26.91;48.86
62374;BME280;48409;49.030;1.820;2022-08-20T10:28:34;101183.03;;;27.02;49.21
62374;BME280;48409;49.030;1.820;2022-08-20T10:31:00;101189.47;;;27.18;48.85
62374;BME280;48409;49.030;1.820;2022-08-20T10:33:25;101187.94;;;27.32;48.36
62374;BME280;48409;49.030;1.820;2022-08-20T10:35:51;101190.13;;;27.45;48.49
62374;BME280;48409;49.030;1.820;2022-08-20T10:38:17;101189.09;;;27.54;48.28
62374;BME280;48409;49.030;1.820;2022-08-20T10:40:42;101197.25;;;27.62;48.19
62374;BME280;48409;49.030;1.820;2022-08-20T10:43:07;101191.13;;;27.69;47.64
62374;BME280;48409;49.030;1.820;2022-08-20T10:45:33;101188.75;;;27.74;47.38
62374;BME280;48409;49.030;1.820;2022-08-20T10:47:59;101190.09;;;27.78;47.21
62374;BME280;48409;49.030;1.820;2022-08-20T10:50:25;101198.91;;;27.80;47.12
62374;BME280;48409;49.030;1.820;2022-08-20T10:52:50;101184.34;;;27.81;46.94
62374;BME280;48409;49.030;1.820;2022-08-20T10:55:16;101193.97;;;27.84;47.06
62374;BME280;48409;49.030;1.820;2022-08-20T10:57:42;101185.69;;;27.85;46.45
62374;BME280;48409;49.030;1.820;2022-08-20T11:00:09;101189.91;;;27.88;46.35
62374;BME280;48409;49.030;1.820;2022-08-20T11:02:35;101187.38;;;27.86;45.99
62374;BME280;48409;49.030;1.820;2022-08-20T11:05:01;101187.38;;;27.86;46.02
62374;BME280;48409;49.030;1.820;2022-08-20T11:07:32;101188.38;;;27.85;45.90
62374;BME280;48409;49.030;1.820;2022-08-20T11:09:59;101181.47;;;27.83;45.61
62374;BME280;48409;49.030;1.820;2022-08-20T11:12:25;101184.69;;;27.78;45.32
62374;BME280;48409;49.030;1.820;2022-08-20T11:14:51;101184.34;;;27.73;45.62
62374;BME280;48409;49.030;1.820;2022-08-20T11:17:26;101180.66;;;27.66;45.62
62374;BME280;48409;49.030;1.820;2022-08-20T11:19:53;101178.78;;;27.58;45.25
62374;BME280;48409;49.030;1.820;2022-08-20T11:22:18;101178.63;;;27.51;44.94
62374;BME280;48409;49.030;1.820;2022-08-20T11:24:44;101178.28;;;27.46;44.96
62374;BME280;48409;49.030;1.820;2022-08-20T11:27:10;101181.34;;;27.43;44.93
62374;BME280;48409;49.030;1.820;2022-08-20T11:29:39;101171.22;;;27.36;44.76
62374;BME280;48409;49.030;1.820;2022-08-20T11:32:05;101171.53;;;27.33;44.46
62374;BME280;48409;49.030;1.820;2022-08-20T11:34:30;101162.09;;;27.29;44.23
62374;BME280;48409;49.030;1.820;2022-08-20T11:36:55;101161.75;;;27.24;44.43
62374;BME280;48409;49.030;1.820;2022-08-20T11:39:23;101165.66;;;27.21;44.07
62374;BME280;48409;49.030;1.820;2022-08-20T11:41:48;101159.75;;;27.18;44.41
62374;BME280;48409;49.030;1.820;2022-08-20T11:44:13;101172.41;;;27.17;44.38
62374;BME280;48409;49.030;1.820;2022-08-20T11:46:39;101162.44;;;27.18;44.39
62374;BME280;48409;49.030;1.820;2022-08-20T11:49:04;101168.69;;;27.18;44.13
62374;BME280;48409;49.030;1.820;2022-08-20T11:51:30;101160.41;;;27.20;44.24
62374;BME280;48409;49.030;1.820;2022-08-20T11:53:55;101156.69;;;27.21;44.11
62374;BME280;48409;49.030;1.820;2022-08-20T11:56:21;101156.69;;;27.21;44.23
62374;BME280;48409;49.030;1.820;2022-08-20T11:58:46;101153.31;;;27.19;43.85
62374;BME280;48409;49.030;1.820;2022-08-20T12:01:12;101161.44;;;27.19;43.96
62374;BME280;48409;49.030;1.820;2022-08-20T12:03:38;101157.03;;;27.18;43.82
62374;BME280;48409;49.030;1.820;2022-08-20T12:06:04;101168.84;;;27.17;43.65
62374;BME280;48409;49.030;1.820;2022-08-20T12:08:29;101174.41;;;27.15;43.32
62374;BME280;48409;49.030;1.820;2022-08-20T12:10:56;101170.19;;;27.13;43.49
62374;BME280;48409;49.030;1.820;2022-08-20T12:13:22;101163.09;;;27.11;43.23
62374;BME280;48409;49.030;1.820;2022-08-20T12:15:48;101161.44;;;27.10;43.28
62374;BME280;48409;49.030;1.820;2022-08-20T12:18:14;101148.94;;;27.09;43.34
62374;BME280;48409;49.030;1.820;2022-08-20T12:20:40;101159.75;;;27.09;43.48
62374;BME280;48409;49.030;1.820;2022-08-20T12:23:05;101156.03;;;27.10;43.29
62374;BME280;48409;49.030;1.820;2022-08-20T12:25:31;101158.03;;;27.08;43.22
62374;BME280;48409;49.030;1.820;2022-08-20T12:27:56;101161.75;;;27.07;43.41
62374;BME280;48409;49.030;1.820;2022-08-20T12:30:23;101161.75;;;27.07;43.42
62374;BME280;48409;49.030;1.820;2022-08-20T12:32:49;101158.38;;;27.05;43.01
62374;BME280;48409;49.030;1.820;2022-08-20T12:35:16;101157.53;;;27.05;43.09
62374;BME280;48409;49.030;1.820;2022-08-20T12:37:43;101153.31;;;27.02;43.11
62374;BME280;48409;49.030;1.820;2022-08-20T12:40:13;101158.06;;;27.00;42.98
62374;BME280;48409;49.030;1.820;2022-08-20T12:42:39;101153.63;;;26.99;42.98
62374;BME280;48409;49.030;1.820;2022-08-20T12:45:05;101156.88;;;26.94;42.71
62374;BME280;48409;49.030;1.820;2022-08-20T12:47:33;101145.50;;;26.91;42.54
62374;BME280;48409;49.030;1.820;2022-08-20T12:50:12;101144.16;;;26.87;42.99
62374;BME280;48409;49.030;1.820;2022-08-20T12:52:39;101144.66;;;26.82;42.77
62374;BME280;48409;49.030;1.820;2022-08-20T12:55:06;101143.13;;;26.79;42.50